Pindare Mirim, Brazil
Current Conditions -  °F | °C
As of 10:00 PM on Tuesday 25 Nov 2014 (Local Time) from SBSL Reporting Station
Broken Clouds Broken Clouds  
Wind Chill: 82°   Ceiling: 1700
Heat Index: 87°   Visibility: 6mi
Dew Point: 72°   Wind: 18mph
Humidity: 70%   Direction: 50°NE
Pressure: 29.83"   Gusts: NA
Location:  3.61°S, 45.34°W
Report Text: SBSL 260100Z 05016KT 9999 BKN017 28/22 Q1010
Loading
Personal Weather Stations






























Interactive Weather Map New forecast layout! Learn more

10-Day Weather Forecast

Advertisements
Track Severe Weather on mobile